Time;durP1;ratioP1;P1;durP2;ratioP2;P2;SDS_P1;SDS_P2;PMS_P1;PMS_P2;Temp;Humidity;BMP_temperature;BMP_pressure;BME280_temperature;BME280_humidity;BME280_pressure;Samples;Min_cycle;Max_cycle;Signal;HPM_P1;HPM_P2
2023/10/17 00:00:45;;;;;;;8.38;6.40;;;6.70;99.90;;;;;;7298242;32;20164;-56
2023/10/17 00:04:32;;;;;;;11.27;6.15;;;6.70;99.90;;;;;;7295533;32;20230;-55
2023/10/17 00:08:35;;;;;;;;;;;6.60;99.90;;;;;;7300709;32;20100;-56
2023/10/17 00:12:40;;;;;;;11.50;6.00;;;6.60;99.90;;;;;;7296245;32;20446;-56
2023/10/17 00:16:42;;;;;;;10.15;6.35;;;6.50;99.90;;;;;;7298985;32;20196;-55
2023/10/17 00:20:44;;;;;;;7.80;6.05;;;6.50;99.90;;;;;;7301033;32;20123;-56
2023/10/17 00:24:47;;;;;;;9.35;6.05;;;6.50;99.90;;;;;;7304002;32;20486;-56
2023/10/17 00:28:51;;;;;;;8.68;5.22;;;6.40;99.90;;;;;;7298210;32;20126;-55
2023/10/17 00:32:52;;;;;;;8.38;5.78;;;6.40;99.90;;;;;;7300927;32;20548;-56
2023/10/17 00:37:10;;;;;;;7.65;5.62;;;6.40;99.90;;;;;;7299380;32;20215;-55
2023/10/17 00:41:29;;;;;;;10.38;5.50;;;6.40;99.90;;;;;;7289698;32;20103;-55
2023/10/17 00:45:34;;;;;;;10.90;5.20;;;6.30;99.90;;;;;;7287749;32;20186;-56
2023/10/17 00:49:42;;;;;;;7.10;5.15;;;6.20;99.90;;;;;;7302656;32;20175;-57
2023/10/17 00:53:45;;;;;;;7.95;4.90;;;6.20;99.90;;;;;;7298614;32;20191;-56
2023/10/17 00:57:48;;;;;;;6.55;4.65;;;6.10;99.90;;;;;;7299290;32;20099;-56
2023/10/17 01:01:50;;;;;;;8.25;5.00;;;6.10;99.90;;;;;;7297401;32;20504;-56
2023/10/17 01:10:14;;;;;;;9.05;4.57;;;6.10;99.90;;;;;;7297497;32;20180;-54
2023/10/17 01:14:19;;;;;;;10.07;4.90;;;6.20;99.90;;;;;;7303703;32;20099;-56
2023/10/17 01:18:20;;;;;;;9.10;3.95;;;6.20;99.90;;;;;;7302680;32;20678;-55
2023/10/17 01:22:22;;;;;;;6.53;4.80;;;6.20;99.90;;;;;;7301495;32;20099;-56
2023/10/17 01:26:26;;;;;;;11.60;4.78;;;6.20;99.90;;;;;;7305384;32;20622;-57
2023/10/17 01:30:32;;;;;;;10.20;4.75;;;6.30;99.90;;;;;;7301276;32;20123;-55
2023/10/17 01:34:36;;;;;;;8.35;5.28;;;6.20;99.90;;;;;;7307537;32;20099;-55
2023/10/17 01:38:38;;;;;;;6.15;4.10;;;6.20;99.90;;;;;;7305762;32;20180;-55
2023/10/17 01:42:40;;;;;;;6.47;3.65;;;6.30;99.90;;;;;;7303627;32;20116;-55
2023/10/17 01:46:43;;;;;;;9.77;4.20;;;6.30;99.90;;;;;;7300950;32;20667;-55
2023/10/17 01:50:45;;;;;;;6.70;4.07;;;6.30;99.90;;;;;;7305688;32;20099;-55
2023/10/17 01:54:48;;;;;;;6.55;4.35;;;6.30;99.90;;;;;;7302413;32;20141;-57
2023/10/17 01:58:50;;;;;;;8.25;4.25;;;6.40;99.90;;;;;;7301919;32;20321;-55
2023/10/17 02:02:54;;;;;;;7.32;3.55;;;6.40;99.90;;;;;;7299016;32;20127;-54
2023/10/17 02:06:57;;;;;;;6.00;3.17;;;6.40;99.90;;;;;;7303752;32;20095;-55
2023/10/17 02:11:01;;;;;;;4.80;3.45;;;6.60;99.90;;;;;;7299210;32;20206;-54
2023/10/17 02:15:06;;;;;;;7.12;3.30;;;6.50;99.90;;;;;;7303819;32;20371;-55
2023/10/17 02:19:08;;;;;;;7.05;3.08;;;6.40;99.90;;;;;;7298589;32;20112;-55
2023/10/17 02:23:19;;;;;;;4.62;2.83;;;6.50;99.90;;;;;;7302219;32;20178;-54
2023/10/17 02:27:21;;;;;;;5.75;3.15;;;6.50;99.90;;;;;;7303812;32;20258;-54
2023/10/17 02:31:27;;;;;;;5.50;3.10;;;6.60;99.90;;;;;;7303213;32;20336;-54
2023/10/17 02:35:39;;;;;;;5.35;3.42;;;6.50;99.90;;;;;;7302255;32;20100;-54
2023/10/17 02:39:41;;;;;;;3.70;3.03;;;6.50;99.90;;;;;;7301339;32;20435;-54
2023/10/17 02:43:45;;;;;;;5.70;2.90;;;6.50;99.90;;;;;;7304922;32;20581;-54
2023/10/17 02:47:48;;;;;;;5.60;3.30;;;6.50;99.90;;;;;;7298268;32;20530;-55
2023/10/17 02:51:50;;;;;;;8.35;2.60;;;6.50;99.90;;;;;;7300154;32;20509;-55
2023/10/17 02:55:51;;;;;;;5.65;3.05;;;6.60;99.90;;;;;;7302624;32;20286;-55
2023/10/17 02:59:56;;;;;;;4.80;3.12;;;6.50;99.90;;;;;;7304720;32;20931;-55
2023/10/17 03:04:08;;;;;;;5.53;3.08;;;6.60;99.90;;;;;;7301630;32;20512;-56
2023/10/17 03:08:15;;;;;;;6.50;3.42;;;6.60;99.90;;;;;;7302001;32;20500;-56
2023/10/17 03:12:23;;;;;;;8.75;3.53;;;6.60;99.90;;;;;;7302546;32;20250;-56
2023/10/17 03:16:27;;;;;;;8.55;3.05;;;6.70;99.90;;;;;;7296805;32;20128;-56
2023/10/17 03:20:36;;;;;;;7.57;3.40;;;6.70;99.90;;;;;;7298837;32;20095;-56
2023/10/17 03:24:44;;;;;;;6.10;3.50;;;6.70;99.90;;;;;;7301798;32;20100;-55
2023/10/17 03:28:46;;;;;;;10.75;3.70;;;6.70;99.90;;;;;;7296137;32;20540;-55
2023/10/17 03:41:26;;;;;;;6.93;3.10;;;6.70;99.90;;;;;;7302631;32;20250;-55
2023/10/17 03:45:43;;;;;;;6.00;2.90;;;6.70;99.90;;;;;;7300499;32;20179;-54
2023/10/17 03:49:48;;;;;;;7.32;3.05;;;6.80;99.90;;;;;;7303292;32;20654;-56
2023/10/17 03:53:49;;;;;;;7.72;2.70;;;6.80;99.90;;;;;;7299941;32;20400;-55
2023/10/17 03:57:54;;;;;;;5.10;2.90;;;6.80;99.90;;;;;;7302575;32;20637;-55
2023/10/17 04:01:57;;;;;;;5.50;2.85;;;6.80;99.90;;;;;;7302048;32;20230;-55
2023/10/17 04:14:25;;;;;;;6.55;2.95;;;6.70;99.90;;;;;;7295511;32;20112;-56
2023/10/17 04:18:29;;;;;;;8.18;2.55;;;6.70;99.90;;;;;;7298765;32;20104;-55
2023/10/17 04:22:31;;;;;;;6.87;2.67;;;6.70;99.90;;;;;;7300971;32;20280;-55
2023/10/17 04:26:36;;;;;;;5.62;2.40;;;6.70;99.90;;;;;;7302212;32;20146;-57
2023/10/17 04:30:46;;;;;;;4.97;2.65;;;6.60;99.90;;;;;;7298212;32;20266;-57
2023/10/17 04:34:48;;;;;;;6.40;2.75;;;6.60;99.90;;;;;;7302102;32;20161;-55
2023/10/17 04:51:31;;;;;;;6.57;2.42;;;6.60;99.90;;;;;;7299648;32;20145;-55
2023/10/17 04:55:40;;;;;;;6.85;2.70;;;6.60;99.90;;;;;;7295211;32;20232;-56
2023/10/17 05:03:50;;;;;;;5.45;2.65;;;6.70;99.90;;;;;;7295415;32;20994;-54
2023/10/17 05:08:05;;;;;;;6.90;2.45;;;6.60;99.90;;;;;;7288644;32;20195;-55
2023/10/17 06:17:30;;;;;;;6.32;3.10;;;6.50;99.90;;;;;;7292777;32;20185;-56
2023/10/17 06:21:35;;;;;;;5.10;2.67;;;6.50;99.90;;;;;;7295634;32;20178;-56
2023/10/17 06:33:55;;;;;;;4.07;2.87;;;6.30;99.90;;;;;;7294304;32;20301;-55
2023/10/17 06:38:00;;;;;;;6.32;2.53;;;6.30;99.90;;;;;;7296462;32;20370;-55
2023/10/17 06:42:14;;;;;;;4.32;2.97;;;6.40;99.90;;;;;;7301716;32;20194;-55
2023/10/17 06:46:28;;;;;;;4.28;3.12;;;6.40;99.90;;;;;;7297711;32;20115;-55
2023/10/17 06:54:58;;;;;;;4.87;2.42;;;6.50;99.90;;;;;;7299973;32;20152;-55
2023/10/17 06:59:04;;;;;;;8.45;2.70;;;6.60;99.90;;;;;;7291391;32;20104;-55
2023/10/17 07:03:07;;;;;;;6.82;3.12;;;6.70;99.90;;;;;;7297392;32;20215;-56
2023/10/17 07:07:09;;;;;;;4.55;2.40;;;6.90;99.90;;;;;;7295709;32;20269;-55
2023/10/17 07:15:19;;;;;;;5.12;2.40;;;7.10;99.90;;;;;;7295501;32;20220;-56
2023/10/17 07:23:32;;;;;;;7.78;2.70;;;7.00;99.90;;;;;;7297319;32;20180;-57
2023/10/17 07:27:38;;;;;;;4.72;2.37;;;7.20;99.90;;;;;;7298815;32;20718;-55
2023/10/17 07:31:40;;;;;;;6.62;2.15;;;7.30;99.90;;;;;;7298527;32;20169;-56
2023/10/17 07:35:42;;;;;;;4.35;2.40;;;7.40;99.90;;;;;;7293644;32;20285;-57
2023/10/17 07:39:59;;;;;;;4.53;2.22;;;7.50;99.90;;;;;;7297175;32;20192;-59
2023/10/17 07:44:09;;;;;;;5.12;2.08;;;7.60;99.90;;;;;;7294966;32;20162;-55
2023/10/17 07:52:43;;;;;;;4.60;1.70;;;7.80;99.90;;;;;;7293662;32;20564;-57
2023/10/17 07:56:50;;;;;;;4.95;1.50;;;8.00;99.90;;;;;;7297208;32;20852;-56
2023/10/17 08:00:52;;;;;;;7.57;1.87;;;8.10;99.90;;;;;;7295810;32;20112;-56
2023/10/17 08:04:54;;;;;;;5.35;1.77;;;8.30;99.90;;;;;;7299131;32;20143;-56
2023/10/17 08:08:58;;;;;;;5.37;1.30;;;8.40;99.90;;;;;;7294662;32;20130;-56
2023/10/17 08:13:02;;;;;;;4.68;1.58;;;8.50;99.90;;;;;;7298728;32;20116;-56
2023/10/17 08:17:05;;;;;;;3.37;1.45;;;8.50;99.90;;;;;;7295596;32;20147;-56
2023/10/17 08:25:25;;;;;;;5.62;1.30;;;8.90;99.90;;;;;;7296835;32;20206;-56
2023/10/17 08:29:28;;;;;;;;;;;8.80;99.90;;;;;;7301294;32;20222;-56
2023/10/17 08:33:37;;;;;;;3.58;1.23;;;8.80;99.90;;;;;;7295205;32;20017;-56
2023/10/17 08:37:44;;;;;;;5.57;1.58;;;8.90;99.90;;;;;;7298540;32;20591;-56
2023/10/17 08:41:46;;;;;;;3.00;1.17;;;8.90;99.90;;;;;;7295117;32;20222;-56
2023/10/17 08:45:54;;;;;;;4.30;1.10;;;8.90;99.90;;;;;;7296532;32;20103;-57
2023/10/17 08:50:03;;;;;;;2.53;1.50;;;8.70;99.90;;;;;;7296701;32;20123;-57
2023/10/17 08:54:05;;;;;;;3.80;1.33;;;8.70;99.90;;;;;;7291330;32;20170;-55
2023/10/17 08:58:10;;;;;;;2.33;1.40;;;8.60;99.90;;;;;;7298253;32;20130;-56
2023/10/17 09:06:37;;;;;;;2.78;1.20;;;9.30;99.90;;;;;;7292723;32;20186;-58
2023/10/17 09:10:41;;;;;;;5.07;1.17;;;9.40;99.90;;;;;;7291718;32;20553;-56
2023/10/17 09:14:48;;;;;;;3.53;1.12;;;9.50;99.90;;;;;;7295377;32;20295;-55
2023/10/17 09:18:54;;;;;;;5.37;1.20;;;9.80;99.90;;;;;;7286289;32;20120;-56
2023/10/17 09:22:55;;;;;;;2.08;0.77;;;10.20;99.90;;;;;;7294250;32;20107;-55
2023/10/17 09:26:58;;;;;;;3.08;1.00;;;10.40;99.90;;;;;;7282822;32;20140;-57
2023/10/17 09:31:03;;;;;;;2.03;0.90;;;10.50;99.90;;;;;;7287867;32;20177;-55
2023/10/17 09:35:10;;;;;;;4.68;1.00;;;10.70;99.90;;;;;;7295483;32;20235;-56
2023/10/17 09:39:15;;;;;;;2.12;0.70;;;11.00;99.90;;;;;;7298741;32;20282;-56
2023/10/17 09:43:36;;;;;;;3.72;0.98;;;11.20;99.90;;;;;;7298101;32;20120;-56
2023/10/17 09:47:44;;;;;;;4.50;0.90;;;11.30;99.90;;;;;;7293401;32;20220;-58
2023/10/17 09:51:48;;;;;;;1.58;0.57;;;11.40;99.90;;;;;;7303414;32;20211;-58
2023/10/17 09:55:51;;;;;;;3.15;0.90;;;11.30;99.90;;;;;;7297057;32;20104;-55
2023/10/17 10:00:23;;;;;;;2.65;0.88;;;11.60;99.90;;;;;;7301616;32;20252;-58
2023/10/17 10:04:25;;;;;;;1.85;0.50;;;11.30;99.90;;;;;;7293111;32;20108;-58
2023/10/17 10:08:34;;;;;;;1.42;0.60;;;10.90;99.90;;;;;;7293781;32;20100;-55
2023/10/17 10:12:59;;;;;;;1.80;0.60;;;10.90;99.90;;;;;;7282472;32;20124;-56
2023/10/17 10:17:04;;;;;;;1.90;0.52;;;10.90;99.90;;;;;;7299999;32;20238;-55
2023/10/17 10:21:09;;;;;;;1.83;0.80;;;10.70;99.90;;;;;;7304562;32;20254;-55
2023/10/17 10:25:12;;;;;;;2.28;0.73;;;10.90;99.90;;;;;;7299852;32;20134;-56
2023/10/17 10:29:24;;;;;;;3.20;0.60;;;10.90;99.90;;;;;;7303448;32;20103;-55
2023/10/17 10:33:30;;;;;;;2.58;0.70;;;10.90;99.90;;;;;;7300541;32;20169;-56
2023/10/17 10:37:54;;;;;;;1.25;0.47;;;10.90;99.90;;;;;;7300443;32;20173;-56
2023/10/17 10:41:58;;;;;;;1.80;0.60;;;11.00;99.90;;;;;;7292321;32;20199;-56
2023/10/17 10:46:01;;;;;;;4.30;0.75;;;11.00;99.90;;;;;;7295574;32;20108;-56
2023/10/17 10:50:05;;;;;;;2.30;0.73;;;11.10;99.90;;;;;;7298505;32;20218;-55
2023/10/17 10:54:08;;;;;;;1.77;0.62;;;11.20;99.90;;;;;;7302292;32;20257;-56
2023/10/17 10:58:10;;;;;;;3.28;0.80;;;11.10;99.90;;;;;;7300693;32;20167;-56
2023/10/17 11:02:14;;;;;;;1.85;0.70;;;11.30;99.90;;;;;;7296454;32;20112;-56
2023/10/17 11:06:29;;;;;;;1.37;0.60;;;11.30;99.90;;;;;;7293336;32;20234;-56
2023/10/17 11:10:31;;;;;;;2.72;0.75;;;11.30;99.90;;;;;;7297175;32;22460;-55
2023/10/17 11:14:33;;;;;;;1.95;0.50;;;11.40;99.90;;;;;;7299953;32;20125;-55
2023/10/17 11:18:38;;;;;;;1.77;0.60;;;11.40;99.90;;;;;;7302541;32;20585;-55
2023/10/17 11:22:40;;;;;;;2.90;0.60;;;11.50;99.90;;;;;;7298463;32;20164;-56
2023/10/17 11:26:42;;;;;;;1.98;0.60;;;11.50;99.90;;;;;;7298114;32;20126;-55
2023/10/17 11:30:45;;;;;;;2.30;0.68;;;11.60;99.90;;;;;;7298720;32;20769;-59
2023/10/17 11:35:03;;;;;;;0.80;0.50;;;11.70;99.90;;;;;;7299815;32;20166;-54
2023/10/17 11:39:05;;;;;;;2.87;0.80;;;11.80;99.90;;;;;;7297646;32;20227;-55
2023/10/17 11:43:28;;;;;;;3.90;0.70;;;11.80;99.90;;;;;;7299672;32;20104;-54
2023/10/17 11:47:35;;;;;;;1.75;0.68;;;11.90;99.90;;;;;;7298684;32;20127;-54
2023/10/17 11:51:39;;;;;;;2.97;0.80;;;12.00;99.90;;;;;;7299639;32;20499;-54
2023/10/17 11:55:45;;;;;;;4.75;0.90;;;11.90;99.90;;;;;;7298451;32;20517;-54
2023/10/17 11:59:56;;;;;;;4.78;0.60;;;11.90;99.90;;;;;;7297154;32;20116;-54
2023/10/17 12:04:06;;;;;;;1.80;0.70;;;12.20;99.90;;;;;;7298274;32;20112;-55
2023/10/17 12:08:08;;;;;;;2.40;0.82;;;12.20;99.90;;;;;;7309511;32;20227;-54
2023/10/17 12:12:10;;;;;;;1.77;0.80;;;12.40;99.90;;;;;;7297876;32;20168;-55
2023/10/17 12:16:11;;;;;;;1.80;0.57;;;12.30;99.90;;;;;;7297989;32;20510;-54
2023/10/17 12:20:16;;;;;;;1.92;0.62;;;12.30;99.90;;;;;;7301179;32;20219;-54
2023/10/17 12:24:19;;;;;;;4.07;0.95;;;12.20;99.90;;;;;;7293541;32;20203;-54
2023/10/17 12:28:21;;;;;;;1.23;0.70;;;12.40;99.90;;;;;;7295378;32;20131;-54
2023/10/17 12:32:23;;;;;;;1.58;0.80;;;12.40;99.90;;;;;;7293498;32;20304;-55
2023/10/17 12:36:25;;;;;;;1.40;0.70;;;12.40;99.90;;;;;;7288908;32;20108;-54
2023/10/17 12:40:30;;;;;;;3.37;1.15;;;12.50;99.90;;;;;;7299865;32;20130;-55
2023/10/17 12:44:32;;;;;;;1.98;0.77;;;12.50;99.90;;;;;;7300804;32;20150;-54
2023/10/17 12:48:34;;;;;;;0.80;0.77;;;12.50;99.90;;;;;;7293814;32;20234;-55
2023/10/17 12:52:35;;;;;;;2.22;0.60;;;12.50;99.90;;;;;;7295917;32;20594;-55
2023/10/17 12:56:37;;;;;;;4.15;1.80;;;12.70;99.90;;;;;;7294959;32;20135;-54
2023/10/17 13:00:40;;;;;;;5.10;0.70;;;12.70;99.90;;;;;;7292633;32;20447;-54
2023/10/17 13:04:42;;;;;;;2.97;0.60;;;12.90;99.90;;;;;;7290671;32;20139;-57
2023/10/17 13:08:48;;;;;;;2.55;0.70;;;12.70;99.90;;;;;;7299970;32;20143;-54
2023/10/17 13:12:50;;;;;;;2.15;0.98;;;12.60;99.90;;;;;;7302489;32;20552;-54
2023/10/17 13:16:52;;;;;;;1.50;0.90;;;12.70;99.90;;;;;;7304081;32;20209;-55
2023/10/17 13:21:02;;;;;;;3.42;0.80;;;12.80;99.90;;;;;;7291784;32;20581;-56
2023/10/17 13:25:12;;;;;;;1.42;0.80;;;13.10;99.90;;;;;;7300457;32;20157;-54
2023/10/17 13:29:14;;;;;;;1.58;0.90;;;12.90;99.90;;;;;;7285727;32;20234;-55
2023/10/17 13:33:21;;;;;;;3.47;0.95;;;12.90;99.90;;;;;;7300450;32;20214;-55
2023/10/17 13:37:23;;;;;;;1.90;1.60;;;13.10;99.90;;;;;;7298005;32;20249;-55
2023/10/17 13:41:25;;;;;;;2.47;1.00;;;12.90;99.90;;;;;;7300838;32;20206;-56
2023/10/17 13:45:28;;;;;;;3.28;0.98;;;12.90;99.90;;;;;;7300596;32;20176;-55
2023/10/17 13:49:30;;;;;;;2.72;1.08;;;13.10;99.90;;;;;;7299506;32;20128;-55
2023/10/17 13:53:40;;;;;;;0.95;0.60;;;12.90;99.90;;;;;;7303344;32;20381;-55
2023/10/17 13:57:42;;;;;;;2.00;0.82;;;13.00;99.90;;;;;;7299537;32;20107;-55
2023/10/17 14:01:47;;;;;;;2.92;1.15;;;13.00;99.90;;;;;;7296197;32;20112;-56
2023/10/17 14:05:49;;;;;;;3.78;1.17;;;13.10;99.90;;;;;;7297166;32;20445;-55
2023/10/17 14:09:55;;;;;;;1.52;0.88;;;13.10;99.90;;;;;;7300904;32;20572;-55
2023/10/17 14:13:58;;;;;;;4.82;0.90;;;13.00;99.90;;;;;;7299559;32;20171;-55
2023/10/17 14:18:09;;;;;;;4.05;1.00;;;13.00;99.90;;;;;;7296147;32;20137;-55
2023/10/17 14:22:21;;;;;;;3.12;1.30;;;13.10;99.90;;;;;;7299835;32;20135;-55
2023/10/17 14:26:29;;;;;;;2.72;1.17;;;13.00;99.90;;;;;;7295436;32;20138;-55
2023/10/17 14:30:31;;;;;;;3.30;1.00;;;12.80;99.90;;;;;;7293198;32;20274;-55
2023/10/17 14:34:33;;;;;;;2.25;0.85;;;12.80;99.90;;;;;;7291949;32;20178;-55
2023/10/17 14:38:36;;;;;;;2.05;0.82;;;12.70;99.90;;;;;;7301648;32;20463;-55
2023/10/17 14:42:39;;;;;;;1.77;1.08;;;12.60;99.90;;;;;;7299931;32;20325;-55
2023/10/17 14:46:41;;;;;;;2.90;1.52;;;12.50;99.90;;;;;;7294334;32;20126;-55
2023/10/17 14:50:44;;;;;;;3.25;1.62;;;12.40;99.90;;;;;;7299290;32;20135;-55
2023/10/17 14:54:46;;;;;;;3.87;1.62;;;12.40;99.90;;;;;;7297199;32;20416;-55
2023/10/17 14:58:49;;;;;;;4.85;1.50;;;12.40;99.90;;;;;;7299996;32;20390;-55
2023/10/17 15:02:51;;;;;;;2.15;1.75;;;12.40;99.90;;;;;;7303367;32;20165;-55
2023/10/17 15:06:53;;;;;;;4.62;1.98;;;12.40;99.90;;;;;;7297562;32;20136;-55
2023/10/17 15:10:55;;;;;;;3.45;2.37;;;12.40;99.90;;;;;;7296705;32;20462;-56
2023/10/17 15:14:58;;;;;;;3.40;2.30;;;12.40;99.90;;;;;;7295694;32;20116;-56
2023/10/17 15:19:00;;;;;;;6.82;2.70;;;12.20;99.90;;;;;;7292050;32;20134;-55
2023/10/17 15:23:02;;;;;;;8.40;2.90;;;12.00;99.90;;;;;;7298799;32;20120;-55
2023/10/17 15:27:04;;;;;;;5.47;2.58;;;12.10;99.90;;;;;;7284169;32;20120;-55
2023/10/17 15:31:09;;;;;;;4.20;2.50;;;12.00;99.90;;;;;;7293220;32;20115;-57
2023/10/17 15:35:14;;;;;;;4.28;1.92;;;11.90;99.90;;;;;;7297184;32;20108;-55
2023/10/17 15:39:18;;;;;;;5.55;2.45;;;11.80;99.90;;;;;;7299223;32;20142;-55
2023/10/17 15:43:20;;;;;;;7.87;2.78;;;11.70;99.90;;;;;;7295505;32;20100;-55
2023/10/17 15:47:21;;;;;;;3.40;2.00;;;11.60;99.90;;;;;;7290662;32;20139;-56
2023/10/17 15:51:26;;;;;;;5.15;2.17;;;11.40;99.90;;;;;;7299552;32;20167;-55
2023/10/17 15:55:28;;;;;;;6.45;2.80;;;11.40;99.90;;;;;;7295362;32;20547;-55
2023/10/17 15:59:31;;;;;;;3.72;2.35;;;11.20;99.90;;;;;;7296642;32;20120;-56
2023/10/17 16:03:33;;;;;;;4.37;2.22;;;11.10;99.90;;;;;;7297196;32;20107;-56
2023/10/17 16:07:36;;;;;;;4.03;2.40;;;11.00;99.90;;;;;;7292854;32;20482;-57
2023/10/17 16:11:38;;;;;;;4.18;2.40;;;10.90;99.90;;;;;;7293461;32;20627;-55
2023/10/17 16:15:40;;;;;;;6.43;2.58;;;10.70;99.90;;;;;;7300629;32;20103;-56
2023/10/17 16:19:43;;;;;;;2.92;2.22;;;10.50;99.90;;;;;;7292510;32;20143;-54
2023/10/17 16:23:47;;;;;;;4.30;2.80;;;10.50;99.90;;;;;;7291566;32;20965;-55
2023/10/17 16:27:50;;;;;;;3.47;2.00;;;10.30;99.90;;;;;;7292809;32;20111;-55
2023/10/17 16:31:54;;;;;;;3.45;2.00;;;10.20;99.90;;;;;;7299914;32;20132;-55
2023/10/17 16:36:00;;;;;;;4.20;2.03;;;10.20;99.90;;;;;;7302018;32;20140;-55
2023/10/17 16:40:04;;;;;;;5.07;2.08;;;10.00;99.90;;;;;;7295843;32;20210;-55
2023/10/17 16:44:05;;;;;;;3.60;2.08;;;9.90;99.90;;;;;;7294874;32;20116;-56
2023/10/17 16:48:07;;;;;;;3.45;1.98;;;9.80;99.90;;;;;;7284565;32;20632;-54
2023/10/17 16:52:09;;;;;;;5.10;2.17;;;9.80;99.90;;;;;;7286016;32;20138;-54
2023/10/17 16:56:12;;;;;;;3.58;1.95;;;9.50;99.90;;;;;;7286472;32;20116;-54
2023/10/17 17:00:16;;;;;;;4.03;2.10;;;9.40;99.90;;;;;;7289705;32;20334;-54
2023/10/17 17:04:18;;;;;;;3.55;2.22;;;9.40;99.90;;;;;;7294060;32;20319;-54
2023/10/17 17:08:20;;;;;;;4.03;1.90;;;9.20;99.90;;;;;;7294032;32;20490;-54
2023/10/17 17:12:21;;;;;;;7.25;2.30;;;9.20;99.90;;;;;;7291215;32;20186;-54
2023/10/17 17:16:23;;;;;;;5.85;2.28;;;9.10;99.90;;;;;;7293388;32;20503;-54
2023/10/17 17:20:25;;;;;;;4.40;2.42;;;9.00;99.90;;;;;;7290480;32;20564;-54
2023/10/17 17:24:27;;;;;;;4.40;2.00;;;9.00;99.90;;;;;;7292164;32;20206;-54
2023/10/17 17:28:29;;;;;;;3.72;2.17;;;8.90;99.90;;;;;;7295800;32;20136;-54
2023/10/17 17:32:31;;;;;;;4.72;2.12;;;8.80;99.90;;;;;;7293583;32;20663;-54
2023/10/17 17:36:33;;;;;;;4.60;2.60;;;8.70;99.90;;;;;;7289989;32;20126;-54
2023/10/17 17:40:37;;;;;;;4.18;2.53;;;8.70;99.90;;;;;;7294366;32;20146;-54
2023/10/17 17:44:39;;;;;;;5.10;2.17;;;8.70;99.90;;;;;;7296330;32;20165;-55
2023/10/17 17:48:41;;;;;;;6.47;2.70;;;8.70;99.90;;;;;;7296040;32;20165;-54
2023/10/17 17:52:43;;;;;;;3.65;2.97;;;8.60;99.90;;;;;;7296885;32;20107;-54
2023/10/17 17:56:46;;;;;;;8.40;3.30;;;8.60;99.90;;;;;;7300996;32;20202;-54
2023/10/17 18:00:51;;;;;;;3.97;2.62;;;8.60;99.90;;;;;;7300355;32;20177;-55
2023/10/17 18:04:54;;;;;;;6.65;3.00;;;8.50;99.90;;;;;;7300073;32;20168;-54
2023/10/17 18:08:56;;;;;;;7.15;2.87;;;8.40;99.90;;;;;;7297120;32;20548;-54
2023/10/17 18:12:59;;;;;;;4.05;2.85;;;8.20;99.90;;;;;;7302434;32;20108;-55
2023/10/17 18:17:04;;;;;;;5.22;2.80;;;8.30;99.90;;;;;;7303635;32;20116;-54
2023/10/17 18:21:08;;;;;;;4.25;3.22;;;8.20;99.90;;;;;;7301272;32;20235;-54
2023/10/17 18:25:10;;;;;;;6.05;3.20;;;8.00;99.90;;;;;;7296379;32;20238;-66
2023/10/17 18:29:12;;;;;;;5.82;2.97;;;8.00;99.90;;;;;;7299555;32;20222;-64
2023/10/17 18:33:14;;;;;;;4.70;2.87;;;8.00;99.90;;;;;;7296116;32;20112;-65
2023/10/17 18:37:15;;;;;;;5.82;3.22;;;8.00;99.90;;;;;;7298658;32;20173;-55
2023/10/17 18:41:17;;;;;;;3.92;3.25;;;8.00;99.90;;;;;;7296084;32;20143;-55
2023/10/17 18:45:20;;;;;;;5.18;3.20;;;7.80;99.90;;;;;;7293298;32;20550;-55
2023/10/17 18:49:21;;;;;;;6.95;4.10;;;7.80;99.90;;;;;;7297695;32;20149;-54
2023/10/17 18:53:23;;;;;;;7.22;4.35;;;7.70;99.90;;;;;;7298495;32;20594;-55
2023/10/17 18:57:26;;;;;;;6.80;4.32;;;7.60;99.90;;;;;;7295400;32;20165;-55
2023/10/17 19:01:27;;;;;;;7.28;4.28;;;7.50;99.90;;;;;;7295551;32;20124;-56
2023/10/17 19:05:29;;;;;;;7.20;4.28;;;7.60;99.90;;;;;;7289563;32;20443;-56
2023/10/17 19:09:31;;;;;;;7.65;4.40;;;7.50;99.90;;;;;;7281242;32;20219;-54
2023/10/17 19:13:33;;;;;;;8.20;4.40;;;7.50;99.90;;;;;;7295506;32;20199;-54
2023/10/17 19:17:35;;;;;;;6.87;4.22;;;7.50;99.90;;;;;;7283854;32;20115;-54
2023/10/17 19:21:37;;;;;;;5.85;3.85;;;7.50;99.90;;;;;;7295562;32;20131;-57
2023/10/17 19:25:41;;;;;;;6.28;3.55;;;7.40;99.90;;;;;;7298936;32;20112;-55
2023/10/17 19:29:43;;;;;;;6.15;4.30;;;7.30;99.90;;;;;;7294782;32;20208;-54
2023/10/17 19:33:44;;;;;;;6.65;4.10;;;7.30;99.90;;;;;;7295502;32;20108;-55
2023/10/17 19:37:47;;;;;;;8.23;3.58;;;7.30;99.90;;;;;;7297581;32;20292;-57
2023/10/17 19:41:49;;;;;;;9.32;4.10;;;7.20;99.90;;;;;;7297706;32;20484;-55
2023/10/17 19:45:51;;;;;;;5.35;3.87;;;7.20;99.90;;;;;;7297168;32;20157;-54
2023/10/17 19:49:54;;;;;;;5.32;3.33;;;7.10;99.90;;;;;;7297481;32;20103;-57
2023/10/17 19:53:55;;;;;;;6.30;3.37;;;7.10;99.90;;;;;;7292717;32;20116;-54
2023/10/17 19:57:57;;;;;;;6.78;3.33;;;7.20;99.90;;;;;;7293138;32;20178;-55
2023/10/17 20:02:00;;;;;;;5.07;3.30;;;7.10;99.90;;;;;;7302986;32;20126;-56
2023/10/17 20:06:02;;;;;;;5.62;3.10;;;7.10;99.90;;;;;;7292524;32;20147;-54
2023/10/17 20:10:04;;;;;;;4.68;3.40;;;7.20;99.90;;;;;;7282603;32;20463;-56
2023/10/17 20:14:07;;;;;;;8.27;3.10;;;7.10;99.90;;;;;;7291567;32;20579;-54
2023/10/17 20:18:09;;;;;;;6.75;3.05;;;7.00;99.90;;;;;;7294861;32;20246;-53
2023/10/17 20:22:11;;;;;;;5.93;3.12;;;7.00;99.90;;;;;;7286385;32;20185;-53
2023/10/17 20:26:13;;;;;;;5.15;2.97;;;7.10;99.90;;;;;;7297094;32;20169;-54
2023/10/17 20:30:16;;;;;;;4.55;2.95;;;7.00;99.90;;;;;;7294665;32;20202;-57
2023/10/17 20:34:18;;;;;;;3.37;2.58;;;7.00;99.90;;;;;;7291963;32;20172;-54
2023/10/17 20:38:20;;;;;;;5.28;2.72;;;7.00;99.90;;;;;;7294738;32;20856;-55
2023/10/17 20:42:22;;;;;;;5.32;3.00;;;7.10;99.90;;;;;;7289488;32;20130;-56
2023/10/17 20:46:24;;;;;;;5.50;3.12;;;7.00;99.90;;;;;;7291392;32;20323;-54
2023/10/17 20:50:33;;;;;;;3.28;2.55;;;7.00;99.90;;;;;;7291252;32;20132;-54
2023/10/17 20:54:40;;;;;;;4.75;2.92;;;6.90;99.90;;;;;;7287019;32;20116;-54
2023/10/17 20:58:42;;;;;;;4.50;2.33;;;6.90;99.90;;;;;;7295277;32;20225;-54
2023/10/17 21:02:49;;;;;;;4.95;2.25;;;6.70;99.90;;;;;;7293987;32;20586;-54
2023/10/17 21:06:51;;;;;;;4.45;2.25;;;6.70;99.90;;;;;;7293152;32;20146;-57
2023/10/17 21:10:53;;;;;;;3.47;2.12;;;6.70;99.90;;;;;;7273682;32;20134;-55
2023/10/17 21:14:55;;;;;;;3.50;2.67;;;6.70;99.90;;;;;;7294932;32;20175;-55
2023/10/17 21:18:57;;;;;;;7.85;2.55;;;6.70;99.90;;;;;;7296472;32;20253;-55
2023/10/17 21:22:59;;;;;;;4.00;2.53;;;6.70;99.90;;;;;;7296115;32;20138;-55
2023/10/17 21:27:01;;;;;;;6.55;2.53;;;6.70;99.90;;;;;;7297231;32;20112;-54
2023/10/17 21:31:04;;;;;;;6.90;3.03;;;6.70;99.90;;;;;;7299452;32;20103;-54
2023/10/17 21:35:07;;;;;;;5.22;2.75;;;6.70;99.90;;;;;;7296965;32;20287;-55
2023/10/17 21:39:15;;;;;;;6.15;2.67;;;6.70;99.90;;;;;;7299421;32;20281;-55
2023/10/17 21:43:17;;;;;;;7.25;2.97;;;6.70;99.90;;;;;;7301833;32;20244;-55
2023/10/17 21:47:19;;;;;;;5.47;3.15;;;6.80;99.90;;;;;;7300187;32;20167;-56
2023/10/17 21:51:21;;;;;;;5.03;3.15;;;6.70;99.90;;;;;;7300924;32;20253;-55
2023/10/17 21:55:22;;;;;;;5.43;3.30;;;6.80;99.90;;;;;;7299627;32;20629;-55
2023/10/17 21:59:24;;;;;;;5.93;2.58;;;6.70;99.90;;;;;;7297805;32;20202;-55
2023/10/17 22:03:27;;;;;;;3.90;2.65;;;6.80;99.90;;;;;;7296773;32;20115;-55
2023/10/17 22:07:29;;;;;;;4.12;2.80;;;6.70;99.90;;;;;;7292291;32;20239;-55
2023/10/17 22:11:30;;;;;;;5.95;2.90;;;6.70;99.90;;;;;;7297980;32;20172;-55
2023/10/17 22:15:33;;;;;;;5.70;2.50;;;6.70;99.90;;;;;;7295330;32;20300;-55
2023/10/17 22:19:35;;;;;;;4.40;2.15;;;6.60;99.90;;;;;;7294757;32;20553;-55
2023/10/17 22:23:37;;;;;;;5.57;1.90;;;6.50;99.90;;;;;;7293242;32;20116;-55
2023/10/17 22:27:39;;;;;;;4.28;2.30;;;6.40;99.90;;;;;;7300651;32;20120;-55
2023/10/17 22:31:41;;;;;;;5.40;2.35;;;6.20;99.90;;;;;;7295327;32;20860;-54
2023/10/17 22:35:43;;;;;;;2.60;1.65;;;6.10;99.90;;;;;;7285638;32;20443;-54
2023/10/17 22:39:46;;;;;;;3.10;2.00;;;5.90;99.90;;;;;;7294942;32;20223;-54
2023/10/17 22:43:48;;;;;;;3.37;2.08;;;5.80;99.90;;;;;;7296085;32;20121;-55
2023/10/17 22:47:52;;;;;;;4.57;1.80;;;5.80;99.90;;;;;;7292871;32;20112;-55
2023/10/17 22:51:54;;;;;;;4.03;2.45;;;5.60;99.90;;;;;;7294783;32;20104;-54
2023/10/17 22:55:56;;;;;;;4.50;1.98;;;5.50;99.90;;;;;;7296155;32;20461;-56
2023/10/17 22:59:58;;;;;;;4.32;2.20;;;5.40;99.90;;;;;;7297917;32;20297;-55
2023/10/17 23:04:00;;;;;;;2.53;1.80;;;5.30;99.90;;;;;;7292607;32;20138;-55
2023/10/17 23:08:03;;;;;;;4.53;2.37;;;5.30;99.90;;;;;;7296130;32;20139;-55
2023/10/17 23:12:06;;;;;;;5.05;2.53;;;5.20;99.90;;;;;;7299091;32;20292;-55
2023/10/17 23:16:08;;;;;;;4.97;2.53;;;5.10;99.90;;;;;;7298147;32;20254;-54
2023/10/17 23:20:14;;;;;;;2.97;1.98;;;5.00;99.90;;;;;;7297002;32;20116;-54
2023/10/17 23:24:16;;;;;;;7.12;2.40;;;5.00;99.90;;;;;;7295219;32;20221;-54
2023/10/17 23:28:18;;;;;;;4.97;2.28;;;4.90;99.90;;;;;;7297053;32;20641;-55
2023/10/17 23:32:20;;;;;;;3.03;2.22;;;4.90;99.90;;;;;;7283231;32;20246;-55
2023/10/17 23:36:21;;;;;;;3.75;2.50;;;4.90;99.90;;;;;;7289131;32;20166;-57